Time;durP1;ratioP1;P1;durP2;ratioP2;P2;SDS_P1;SDS_P2;PMS_P1;PMS_P2;Temp;Humidity;BMP_temperature;BMP_pressure;BME280_temperature;BME280_humidity;BME280_pressure;Samples;Min_cycle;Max_cycle;Signal;HPM_P1;HPM_P2
2021/08/24 00:02:12;;;;;;;1.70;1.50;;;24.30;61.70;;;;;;5055265;28;20370;-58
2021/08/24 00:04:38;;;;;;;3.08;2.35;;;24.30;61.70;;;;;;5055281;28;20046;-58
2021/08/24 00:07:04;;;;;;;2.03;1.60;;;24.30;61.70;;;;;;5054112;28;20482;-58
2021/08/24 00:09:29;;;;;;;2.33;1.77;;;24.30;61.70;;;;;;5054526;28;20028;-58
2021/08/24 00:11:55;;;;;;;3.03;1.83;;;24.30;61.70;;;;;;5053860;28;20029;-58
2021/08/24 00:14:21;;;;;;;2.58;1.92;;;24.30;61.60;;;;;;5054558;28;20079;-59
2021/08/24 00:16:47;;;;;;;1.60;1.25;;;24.30;61.60;;;;;;5053753;28;20032;-58
2021/08/24 00:19:13;;;;;;;1.70;1.55;;;24.30;61.70;;;;;;5065918;28;20020;-58
2021/08/24 00:21:40;;;;;;;2.33;1.55;;;24.30;61.60;;;;;;5073807;28;20040;-58
2021/08/24 00:24:07;;;;;;;1.70;1.48;;;24.30;61.60;;;;;;5073703;28;20099;-58
2021/08/24 00:26:33;;;;;;;2.15;1.85;;;24.30;61.60;;;;;;5074307;28;20025;-58
2021/08/24 00:28:59;;;;;;;1.85;1.45;;;24.30;61.60;;;;;;5073572;28;20036;-58
2021/08/24 00:31:24;;;;;;;2.90;1.33;;;24.30;61.60;;;;;;5073949;28;20025;-58
2021/08/24 00:33:51;;;;;;;2.60;1.75;;;24.30;61.60;;;;;;5072935;28;20035;-58
2021/08/24 00:36:17;;;;;;;3.95;2.33;;;24.30;61.60;;;;;;5073938;28;20028;-58
2021/08/24 00:38:43;;;;;;;1.63;1.42;;;24.30;62.20;;;;;;5073321;28;20026;-58
2021/08/24 00:41:10;;;;;;;3.53;1.83;;;24.30;61.50;;;;;;5073772;28;20432;-58
2021/08/24 00:43:40;;;;;;;2.78;1.67;;;24.30;61.60;;;;;;5074180;28;20418;-58
2021/08/24 00:46:27;;;;;;;2.85;1.58;;;24.30;61.60;;;;;;5073709;28;20043;-59
2021/08/24 00:48:54;;;;;;;2.10;1.40;;;24.30;61.50;;;;;;5072555;28;20497;-58
2021/08/24 00:51:23;;;;;;;1.92;1.58;;;24.30;61.50;;;;;;5073747;28;20496;-58
2021/08/24 00:53:49;;;;;;;2.22;1.33;;;24.30;61.50;;;;;;5073165;28;20036;-58
2021/08/24 00:56:15;;;;;;;1.52;1.40;;;24.30;61.50;;;;;;5073724;28;20035;-58
2021/08/24 00:58:41;;;;;;;1.65;1.30;;;24.30;61.50;;;;;;5072907;28;20103;-58
2021/08/24 01:01:08;;;;;;;2.20;1.60;;;24.30;61.50;;;;;;5073095;28;20440;-58
2021/08/24 01:03:38;;;;;;;1.50;1.30;;;24.30;61.50;;;;;;5073542;28;20028;-58
2021/08/24 01:06:26;;;;;;;1.85;1.33;;;24.30;61.50;;;;;;5072797;28;20025;-58
2021/08/24 01:08:58;;;;;;;3.38;1.67;;;24.30;61.50;;;;;;5072282;28;20075;-58
2021/08/24 01:11:28;;;;;;;;;;;24.30;61.40;;;;;;5054216;28;20025;-58
2021/08/24 01:14:07;;;;;;;1.77;1.38;;;24.30;61.40;;;;;;5052612;28;20420;-58
2021/08/24 01:16:39;;;;;;;3.47;1.50;;;24.30;61.30;;;;;;5053304;28;20028;-58
2021/08/24 01:19:13;;;;;;;;;;;24.30;61.40;;;;;;5066572;28;20036;-58
2021/08/24 01:22:23;;;;;;;1.40;1.30;;;24.30;61.40;;;;;;5073233;28;19958;-59
2021/08/24 01:25:29;;;;;;;1.70;1.42;;;24.20;61.30;;;;;;5072557;28;20033;-58
2021/08/24 01:28:12;;;;;;;1.88;1.50;;;24.30;61.30;;;;;;5072360;28;20047;-58
2021/08/24 01:31:15;;;;;;;1.80;1.70;;;24.30;61.80;;;;;;5072712;28;20040;-59
2021/08/24 01:34:07;;;;;;;2.28;1.42;;;24.30;61.30;;;;;;5072506;28;20040;-58
2021/08/24 01:36:59;;;;;;;2.35;1.70;;;24.30;61.20;;;;;;5072898;28;20020;-58
2021/08/24 01:39:31;;;;;;;1.90;1.40;;;24.30;61.20;;;;;;5072526;28;20040;-58
2021/08/24 01:42:24;;;;;;;2.95;1.40;;;24.30;61.10;;;;;;5071485;28;20032;-59
2021/08/24 01:44:52;;;;;;;1.42;1.15;;;24.30;61.10;;;;;;5071065;28;20025;-58
2021/08/24 01:47:36;;;;;;;2.13;1.42;;;24.30;61.10;;;;;;5072739;28;20035;-58
2021/08/24 01:50:11;;;;;;;2.72;2.00;;;24.30;61.10;;;;;;5071467;28;20243;-58
2021/08/24 01:52:43;;;;;;;1.80;1.30;;;24.30;61.10;;;;;;5071476;28;20086;-58
2021/08/24 01:55:18;;;;;;;1.50;1.40;;;24.20;61.00;;;;;;5072432;28;20066;-58
2021/08/24 01:58:10;;;;;;;3.42;1.60;;;24.20;60.90;;;;;;5071617;28;20059;-58
2021/08/24 02:00:39;;;;;;;2.30;1.30;;;24.20;60.90;;;;;;5069132;28;20136;-58
2021/08/24 02:03:10;;;;;;;1.55;1.30;;;24.20;60.90;;;;;;5071598;28;20089;-58
2021/08/24 02:06:00;;;;;;;1.58;1.30;;;24.30;60.90;;;;;;5072042;28;20032;-58
2021/08/24 02:08:30;;;;;;;1.65;1.40;;;24.30;61.10;;;;;;5072130;28;20056;-58
2021/08/24 02:11:01;;;;;;;1.83;1.50;;;24.20;60.90;;;;;;5071749;28;20082;-58
2021/08/24 02:13:33;;;;;;;1.77;1.40;;;24.30;60.90;;;;;;5070954;28;20480;-58
2021/08/24 02:16:02;;;;;;;2.17;1.70;;;24.20;60.90;;;;;;5071851;28;20047;-58
2021/08/24 02:18:32;;;;;;;2.03;1.63;;;24.20;60.80;;;;;;5071914;28;20104;-58
2021/08/24 02:21:23;;;;;;;3.45;1.20;;;24.20;60.80;;;;;;5070902;28;20036;-58
2021/08/24 02:23:53;;;;;;;2.67;1.35;;;24.20;60.80;;;;;;5071194;28;20033;-58
2021/08/24 02:26:22;;;;;;;1.77;1.35;;;24.20;60.80;;;;;;5071832;28;20033;-58
2021/08/24 02:28:52;;;;;;;2.08;1.60;;;24.20;60.80;;;;;;5071168;28;20032;-58
2021/08/24 02:31:36;;;;;;;1.48;1.33;;;24.20;60.70;;;;;;5071762;28;20535;-58
2021/08/24 02:34:16;;;;;;;1.83;1.25;;;24.20;60.70;;;;;;5071421;28;20035;-58
2021/08/24 02:36:51;;;;;;;1.52;1.30;;;24.20;60.70;;;;;;5071335;28;20025;-58
2021/08/24 02:39:25;;;;;;;1.90;1.40;;;24.20;60.70;;;;;;5071928;28;20037;-58
2021/08/24 02:42:12;;;;;;;1.75;1.30;;;24.20;60.70;;;;;;5071501;28;20067;-58
2021/08/24 02:44:41;;;;;;;1.40;1.30;;;24.20;60.60;;;;;;5071997;28;20028;-58
2021/08/24 02:47:07;;;;;;;3.17;1.20;;;24.20;60.60;;;;;;5070792;28;20581;-58
2021/08/24 02:49:36;;;;;;;1.20;1.10;;;24.20;60.60;;;;;;5071300;28;20071;-58
2021/08/24 02:52:06;;;;;;;2.05;1.50;;;24.20;60.50;;;;;;5070693;28;20016;-58
2021/08/24 02:54:40;;;;;;;1.45;1.35;;;24.20;60.60;;;;;;5071698;28;20051;-58
2021/08/24 02:57:06;;;;;;;2.03;1.30;;;24.20;60.50;;;;;;5071059;28;20134;-58
2021/08/24 02:59:34;;;;;;;1.80;1.63;;;24.20;60.50;;;;;;5071235;28;20053;-58
2021/08/24 03:02:01;;;;;;;2.38;1.88;;;24.20;60.50;;;;;;5060123;28;20385;-58
2021/08/24 03:04:28;;;;;;;1.63;1.30;;;24.20;60.50;;;;;;5070364;28;20389;-58
2021/08/24 03:07:00;;;;;;;1.52;1.17;;;24.20;60.50;;;;;;5060792;28;20029;-57
2021/08/24 03:09:29;;;;;;;2.25;1.25;;;24.20;60.40;;;;;;5046828;28;20036;-57
2021/08/24 03:12:16;;;;;;;2.10;1.30;;;24.20;60.50;;;;;;5048665;28;20044;-57
2021/08/24 03:15:20;;;;;;;2.38;1.50;;;24.20;60.50;;;;;;5050166;28;20083;-57
2021/08/24 03:18:21;;;;;;;1.85;1.58;;;24.20;60.50;;;;;;5028770;28;20060;-55
2021/08/24 03:20:50;;;;;;;1.33;1.10;;;24.20;60.50;;;;;;5040420;28;20041;-58
2021/08/24 03:23:19;;;;;;;2.95;1.33;;;24.20;60.40;;;;;;5049889;28;20025;-58
2021/08/24 03:25:47;;;;;;;2.35;1.20;;;24.20;60.40;;;;;;5049032;28;20872;-58
2021/08/24 03:28:15;;;;;;;2.25;1.30;;;24.20;60.40;;;;;;5057953;28;20028;-58
2021/08/24 03:30:41;;;;;;;1.80;1.23;;;24.20;60.30;;;;;;5049425;28;20033;-59
2021/08/24 03:33:08;;;;;;;2.70;1.42;;;24.20;60.40;;;;;;5048480;28;20484;-58
2021/08/24 03:35:34;;;;;;;1.75;1.30;;;24.20;60.40;;;;;;5050398;28;20120;-58
2021/08/24 03:38:00;;;;;;;1.92;1.20;;;24.20;60.30;;;;;;5052363;28;20461;-58
2021/08/24 03:40:26;;;;;;;1.60;1.23;;;24.20;60.40;;;;;;5050564;28;20075;-58
2021/08/24 03:42:53;;;;;;;1.48;1.15;;;24.20;60.30;;;;;;5050182;28;20032;-58
2021/08/24 03:45:19;;;;;;;3.22;1.30;;;24.20;60.30;;;;;;5051066;28;20028;-58
2021/08/24 03:47:45;;;;;;;1.52;1.20;;;24.20;60.20;;;;;;5050575;28;20075;-58
2021/08/24 03:50:11;;;;;;;1.70;1.10;;;24.20;60.20;;;;;;5049699;28;20036;-58
2021/08/24 03:52:37;;;;;;;1.42;1.20;;;24.10;60.20;;;;;;5049126;28;20524;-59
2021/08/24 03:55:04;;;;;;;2.55;1.45;;;24.20;60.20;;;;;;5050324;28;20437;-58
2021/08/24 03:57:30;;;;;;;2.65;1.33;;;24.10;60.10;;;;;;5050830;28;20051;-58
2021/08/24 03:59:56;;;;;;;2.00;1.45;;;24.20;60.20;;;;;;5049924;28;20041;-58
2021/08/24 04:02:24;;;;;;;2.33;1.52;;;24.20;60.20;;;;;;5050762;28;20028;-59
2021/08/24 04:04:50;;;;;;;1.58;1.30;;;24.20;60.20;;;;;;5050298;28;20433;-58
2021/08/24 04:07:16;;;;;;;1.67;1.13;;;24.20;60.10;;;;;;5051946;28;20112;-57
2021/08/24 04:09:41;;;;;;;1.20;1.10;;;24.20;60.10;;;;;;5058159;28;20082;-58
2021/08/24 04:12:07;;;;;;;2.33;1.20;;;24.20;60.10;;;;;;5069365;28;20484;-58
2021/08/24 04:14:33;;;;;;;2.33;1.48;;;24.20;60.00;;;;;;5074179;28;20029;-58
2021/08/24 04:16:59;;;;;;;1.35;1.20;;;24.10;60.00;;;;;;5073523;28;20039;-58
2021/08/24 04:19:25;;;;;;;1.85;1.55;;;24.10;60.00;;;;;;5074680;28;20029;-58
2021/08/24 04:21:50;;;;;;;3.17;1.30;;;24.20;60.10;;;;;;5051109;28;20386;-58
2021/08/24 04:24:16;;;;;;;2.08;1.38;;;24.20;60.00;;;;;;5052164;28;20055;-58
2021/08/24 04:26:42;;;;;;;2.35;1.50;;;24.20;60.00;;;;;;5050130;28;20035;-58
2021/08/24 04:29:09;;;;;;;1.50;1.30;;;24.20;60.00;;;;;;5052966;28;20083;-59
2021/08/24 04:31:38;;;;;;;1.42;1.27;;;24.20;60.00;;;;;;5054212;28;20029;-58
2021/08/24 04:34:05;;;;;;;3.08;1.33;;;24.10;59.90;;;;;;5053075;28;20039;-58
2021/08/24 04:36:31;;;;;;;1.70;1.27;;;24.20;60.00;;;;;;5054329;28;20029;-58
2021/08/24 04:38:56;;;;;;;1.50;1.27;;;24.20;59.90;;;;;;5052956;28;20538;-58
2021/08/24 04:41:22;;;;;;;1.80;1.50;;;24.20;60.00;;;;;;5053177;28;20390;-58
2021/08/24 04:43:48;;;;;;;1.75;1.40;;;24.10;59.90;;;;;;5049393;28;20378;-57
2021/08/24 04:46:14;;;;;;;2.35;1.50;;;24.10;59.90;;;;;;5052919;28;20064;-58
2021/08/24 04:48:40;;;;;;;2.65;1.38;;;24.10;59.90;;;;;;5049388;28;20474;-58
2021/08/24 04:51:05;;;;;;;1.27;1.13;;;24.10;59.80;;;;;;5050966;28;20112;-58
2021/08/24 04:53:31;;;;;;;1.58;1.35;;;24.10;59.80;;;;;;5050269;28;20105;-58
2021/08/24 04:55:57;;;;;;;1.48;1.27;;;24.10;59.80;;;;;;5051286;28;20173;-58
2021/08/24 04:58:23;;;;;;;2.08;1.75;;;24.10;59.80;;;;;;5053830;28;20488;-58
2021/08/24 05:00:49;;;;;;;1.40;0.98;;;24.10;59.70;;;;;;5050320;28;20049;-58
2021/08/24 05:03:15;;;;;;;1.42;1.08;;;24.10;59.80;;;;;;5053247;28;20387;-58
2021/08/24 05:05:41;;;;;;;2.03;1.30;;;24.20;59.70;;;;;;5053350;28;20025;-58
2021/08/24 05:08:07;;;;;;;1.55;1.30;;;24.10;59.60;;;;;;5052515;28;20033;-58
2021/08/24 05:10:33;;;;;;;1.70;1.40;;;24.10;59.70;;;;;;5053381;28;20061;-58
2021/08/24 05:13:00;;;;;;;3.10;1.70;;;24.10;59.70;;;;;;5053114;28;20033;-58
2021/08/24 05:15:26;;;;;;;1.42;1.17;;;24.10;59.60;;;;;;5053535;28;20035;-58
2021/08/24 05:17:53;;;;;;;1.80;1.30;;;24.20;59.70;;;;;;5052507;28;20100;-58
2021/08/24 05:20:19;;;;;;;1.50;1.27;;;24.20;59.70;;;;;;5053019;28;20545;-59
2021/08/24 05:22:45;;;;;;;1.95;1.38;;;24.10;59.70;;;;;;5053129;28;20103;-58
2021/08/24 05:25:14;;;;;;;2.28;1.58;;;24.10;59.60;;;;;;5052308;28;20582;-58
2021/08/24 05:27:40;;;;;;;2.28;1.58;;;24.10;59.60;;;;;;5052888;28;20040;-58
2021/08/24 05:30:09;;;;;;;1.58;1.05;;;24.10;59.60;;;;;;5058882;28;20035;-58
2021/08/24 05:32:35;;;;;;;2.13;1.20;;;24.20;59.70;;;;;;5073336;28;20028;-58
2021/08/24 05:35:01;;;;;;;2.95;1.35;;;24.20;59.80;;;;;;5061059;28;20041;-58
2021/08/24 05:37:26;;;;;;;4.32;1.48;;;24.20;60.00;;;;;;5053032;28;20417;-58
2021/08/24 05:39:52;;;;;;;4.25;1.52;;;24.20;59.90;;;;;;5051839;28;20033;-58
2021/08/24 05:42:18;;;;;;;1.60;1.27;;;24.10;59.80;;;;;;5052006;28;20358;-58
2021/08/24 05:44:44;;;;;;;3.28;1.88;;;24.10;59.80;;;;;;5052566;28;20470;-58
2021/08/24 05:47:11;;;;;;;3.83;1.75;;;24.20;60.00;;;;;;5050476;28;20758;-57
2021/08/24 05:49:36;;;;;;;7.30;2.90;;;24.10;60.00;;;;;;5052768;28;20040;-58
2021/08/24 05:52:03;;;;;;;5.57;2.97;;;23.80;55.60;;;;;;5051844;28;20362;-58
2021/08/24 05:54:30;;;;;;;5.97;3.58;;;22.80;56.70;;;;;;5052767;28;20040;-58
2021/08/24 05:56:56;;;;;;;5.15;2.97;;;22.30;58.40;;;;;;5051981;28;20029;-58
2021/08/24 05:59:21;;;;;;;4.78;3.28;;;21.90;59.60;;;;;;5052370;28;20075;-58
2021/08/24 06:01:47;;;;;;;5.55;3.53;;;21.70;60.10;;;;;;5072641;28;20040;-58
2021/08/24 06:04:13;;;;;;;5.45;3.30;;;21.50;60.30;;;;;;5071131;28;20070;-58
2021/08/24 06:06:41;;;;;;;5.78;3.53;;;21.30;61.30;;;;;;5072002;28;20108;-58
2021/08/24 06:09:10;;;;;;;7.55;3.78;;;21.20;61.20;;;;;;5069595;28;20099;-58
2021/08/24 06:11:39;;;;;;;4.55;3.20;;;21.20;61.60;;;;;;5046604;28;20041;-48
2021/08/24 06:14:09;;;;;;;4.63;3.30;;;21.10;61.20;;;;;;5043796;28;20099;-49
2021/08/24 06:16:37;;;;;;;5.10;3.80;;;21.10;61.20;;;;;;5051153;28;20025;-47
2021/08/24 06:19:02;;;;;;;6.10;3.70;;;21.10;61.90;;;;;;5051870;28;20102;-48
2021/08/24 06:21:28;;;;;;;3.88;3.05;;;21.10;61.30;;;;;;5052293;28;20459;-50
2021/08/24 06:23:54;;;;;;;5.78;3.75;;;21.00;61.20;;;;;;5051400;28;20375;-54
2021/08/24 06:26:20;;;;;;;6.03;3.25;;;20.90;61.30;;;;;;5052050;28;20513;-48
2021/08/24 06:28:46;;;;;;;4.22;3.22;;;20.90;61.80;;;;;;5052036;28;20079;-49
2021/08/24 06:31:20;;;;;;;6.47;3.92;;;20.90;62.00;;;;;;5050942;28;20031;-51
2021/08/24 06:33:46;;;;;;;5.82;2.70;;;20.80;61.40;;;;;;5051826;28;20421;-47
2021/08/24 06:36:11;;;;;;;7.80;3.50;;;20.80;61.20;;;;;;5051202;28;20079;-48
2021/08/24 06:38:37;;;;;;;3.85;2.72;;;20.80;61.40;;;;;;5051739;28;20063;-48
2021/08/24 06:41:04;;;;;;;4.25;2.80;;;20.80;61.80;;;;;;5050611;28;20029;-48
2021/08/24 06:43:31;;;;;;;3.95;2.90;;;20.80;61.90;;;;;;5070201;28;20033;-48
2021/08/24 06:45:58;;;;;;;4.88;2.88;;;20.80;61.40;;;;;;5071380;28;20029;-49
2021/08/24 06:48:24;;;;;;;6.47;3.30;;;20.80;61.10;;;;;;5071801;28;20112;-48
2021/08/24 06:50:50;;;;;;;5.68;2.65;;;20.70;60.80;;;;;;5072247;28;20416;-48
2021/08/24 06:53:16;;;;;;;6.47;3.22;;;20.70;61.90;;;;;;5071041;28;20020;-47
2021/08/24 06:55:41;;;;;;;7.28;3.10;;;20.70;61.10;;;;;;5071265;28;20029;-53
2021/08/24 06:58:09;;;;;;;4.50;3.28;;;20.60;61.20;;;;;;5065671;28;20254;-47
2021/08/24 07:00:36;;;;;;;4.97;3.20;;;20.60;61.80;;;;;;5051694;28;20053;-49
2021/08/24 07:03:02;;;;;;;4.80;2.90;;;20.60;61.50;;;;;;5051861;28;20075;-50
2021/08/24 07:05:29;;;;;;;3.90;2.75;;;20.60;60.90;;;;;;5051799;28;20025;-47
2021/08/24 07:07:55;;;;;;;5.07;2.95;;;20.60;60.90;;;;;;5051268;28;20430;-53
2021/08/24 07:10:23;;;;;;;4.22;2.75;;;20.50;60.40;;;;;;5050123;28;20490;-47
2021/08/24 07:12:48;;;;;;;6.43;2.67;;;20.50;60.40;;;;;;5065513;28;20028;-47
2021/08/24 07:15:18;;;;;;;3.42;2.28;;;20.50;60.60;;;;;;5070874;28;20059;-48
2021/08/24 07:17:43;;;;;;;3.92;2.53;;;20.60;60.30;;;;;;5071665;28;20029;-50
2021/08/24 07:20:13;;;;;;;4.70;2.65;;;20.50;60.20;;;;;;5070237;28;20116;-47
2021/08/24 07:22:39;;;;;;;4.43;2.70;;;20.50;60.60;;;;;;5071504;28;20028;-48
2021/08/24 07:25:09;;;;;;;4.28;2.47;;;20.50;60.40;;;;;;5070585;28;20367;-47
2021/08/24 07:27:34;;;;;;;6.07;2.70;;;20.50;60.20;;;;;;5071588;28;20035;-48
2021/08/24 07:30:00;;;;;;;5.53;2.83;;;20.50;60.90;;;;;;5070297;28;20037;-47
2021/08/24 07:32:26;;;;;;;7.07;2.63;;;20.50;60.80;;;;;;5071318;28;20124;-47
2021/08/24 07:34:52;;;;;;;5.90;2.05;;;20.40;61.10;;;;;;5071240;28;20476;-46
2021/08/24 07:37:18;;;;;;;4.65;1.85;;;20.60;61.00;;;;;;5070738;28;20024;-46
2021/08/24 07:39:43;;;;;;;4.22;1.67;;;21.60;58.90;;;;;;5071635;28;20077;-47
2021/08/24 07:42:10;;;;;;;3.08;1.70;;;22.20;57.60;;;;;;5071236;28;20435;-47
2021/08/24 07:44:36;;;;;;;7.22;1.65;;;22.50;56.90;;;;;;5075269;28;20031;-47
2021/08/24 07:47:06;;;;;;;2.05;1.58;;;22.70;57.50;;;;;;5074325;28;20389;-47
2021/08/24 07:49:34;;;;;;;4.05;1.70;;;22.90;56.80;;;;;;5075211;28;20097;-49
2021/08/24 07:52:01;;;;;;;3.47;1.83;;;23.00;56.70;;;;;;5074352;28;20380;-47
2021/08/24 07:54:27;;;;;;;3.90;1.63;;;23.10;56.90;;;;;;5075022;28;20048;-48
2021/08/24 07:56:53;;;;;;;2.60;1.70;;;23.10;57.00;;;;;;5074674;28;20029;-46
2021/08/24 07:59:18;;;;;;;1.98;1.42;;;23.10;57.00;;;;;;5073390;28;20063;-47
2021/08/24 08:01:44;;;;;;;3.28;1.48;;;23.20;57.20;;;;;;5075053;28;20028;-47
2021/08/24 08:04:09;;;;;;;2.95;1.40;;;23.20;57.10;;;;;;5074112;28;20028;-47
2021/08/24 08:06:36;;;;;;;2.78;1.42;;;23.20;57.20;;;;;;5075083;28;20104;-47
2021/08/24 08:09:02;;;;;;;3.13;1.50;;;23.20;57.20;;;;;;5072318;28;20036;-46
2021/08/24 08:11:30;;;;;;;3.38;1.58;;;23.30;57.20;;;;;;5057571;28;20032;-47
2021/08/24 08:13:56;;;;;;;2.60;1.40;;;23.30;57.30;;;;;;5074149;28;20078;-46
2021/08/24 08:16:21;;;;;;;2.78;1.90;;;23.30;57.20;;;;;;5074480;28;20029;-47
2021/08/24 08:18:50;;;;;;;2.95;1.70;;;23.30;57.30;;;;;;5074540;28;20081;-47
2021/08/24 08:21:17;;;;;;;3.15;1.83;;;23.30;57.20;;;;;;5073377;28;20046;-47
2021/08/24 08:23:42;;;;;;;1.80;1.40;;;23.40;57.30;;;;;;5074673;28;20423;-48
2021/08/24 08:26:08;;;;;;;2.80;1.30;;;23.40;57.30;;;;;;5073678;28;20107;-47
2021/08/24 08:28:34;;;;;;;3.33;1.50;;;23.40;57.30;;;;;;5074408;28;20466;-47
2021/08/24 08:31:01;;;;;;;3.33;1.40;;;23.40;57.30;;;;;;5073359;28;20121;-54
2021/08/24 08:33:27;;;;;;;1.95;1.20;;;23.40;57.40;;;;;;5073283;28;20393;-47
2021/08/24 08:35:53;;;;;;;2.08;1.15;;;23.40;57.40;;;;;;5074371;28;20029;-47
2021/08/24 08:38:18;;;;;;;2.58;1.58;;;23.40;57.40;;;;;;5073528;28;20195;-47
2021/08/24 08:40:51;;;;;;;2.75;1.33;;;23.40;57.40;;;;;;5074187;28;20040;-48
2021/08/24 08:43:51;;;;;;;2.50;1.40;;;23.50;57.50;;;;;;5052917;28;20021;-47
2021/08/24 08:46:30;;;;;;;2.35;1.45;;;23.50;57.50;;;;;;5053362;28;20481;-47
2021/08/24 08:48:58;;;;;;;2.22;1.40;;;23.50;57.50;;;;;;5054284;28;20163;-46
2021/08/24 08:51:39;;;;;;;2.38;1.50;;;23.50;57.40;;;;;;5053525;28;20036;-47
2021/08/24 08:54:11;;;;;;;1.45;1.23;;;23.50;57.50;;;;;;5052861;28;20066;-46
2021/08/24 08:56:51;;;;;;;1.95;1.23;;;23.60;57.50;;;;;;5054364;28;20029;-47
2021/08/24 08:59:29;;;;;;;5.45;1.75;;;23.50;57.50;;;;;;5053538;28;20056;-48
2021/08/24 09:02:16;;;;;;;3.15;1.90;;;23.50;57.60;;;;;;5053932;28;20040;-47
2021/08/24 09:04:44;;;;;;;3.30;1.50;;;23.50;57.70;;;;;;5054224;28;20108;-47
2021/08/24 09:07:19;;;;;;;6.15;2.25;;;23.60;57.70;;;;;;5053684;28;20029;-47
2021/08/24 09:09:44;;;;;;;4.88;1.65;;;23.50;57.70;;;;;;5054128;28;20128;-47
2021/08/24 09:12:12;;;;;;;4.20;1.50;;;23.50;57.70;;;;;;5061942;28;20104;-47
2021/08/24 09:14:46;;;;;;;3.42;1.67;;;23.60;57.80;;;;;;5073861;28;20032;-47
2021/08/24 09:17:30;;;;;;;2.83;1.35;;;23.60;57.70;;;;;;5073461;28;20024;-47
2021/08/24 09:19:59;;;;;;;4.57;1.70;;;23.60;57.70;;;;;;5073779;28;20037;-55
2021/08/24 09:22:25;;;;;;;4.93;1.48;;;23.60;57.70;;;;;;5074225;28;20108;-47
2021/08/24 09:24:51;;;;;;;3.35;1.50;;;23.60;57.70;;;;;;5073729;28;20028;-48
2021/08/24 09:27:31;;;;;;;5.90;1.50;;;23.60;57.70;;;;;;5073138;28;20039;-48
2021/08/24 09:29:57;;;;;;;4.95;1.80;;;23.60;57.70;;;;;;5073751;28;20032;-47
2021/08/24 09:32:27;;;;;;;2.08;1.60;;;23.60;57.80;;;;;;5073042;28;20039;-48
2021/08/24 09:35:15;;;;;;;7.35;1.92;;;23.60;57.70;;;;;;5073759;28;20031;-47
2021/08/24 09:37:41;;;;;;;2.40;1.27;;;23.60;57.80;;;;;;5073630;28;20052;-47
2021/08/24 09:40:11;;;;;;;3.75;1.55;;;23.60;57.70;;;;;;5073002;28;20036;-47
2021/08/24 09:42:43;;;;;;;2.53;1.25;;;23.60;57.70;;;;;;5073318;28;20032;-47
2021/08/24 09:45:26;;;;;;;3.78;1.70;;;23.60;57.70;;;;;;5072702;28;20024;-48
2021/08/24 09:48:06;;;;;;;2.55;1.27;;;23.60;57.80;;;;;;5073493;28;20085;-48
2021/08/24 09:50:40;;;;;;;4.45;1.83;;;23.60;57.80;;;;;;5073410;28;20056;-47
2021/08/24 09:53:13;;;;;;;3.45;1.50;;;23.60;57.70;;;;;;5072769;28;20027;-47
2021/08/24 09:55:47;;;;;;;2.83;1.38;;;23.60;57.70;;;;;;5073463;28;20029;-47
2021/08/24 09:58:28;;;;;;;3.15;1.50;;;23.60;57.80;;;;;;5072739;28;20050;-47
2021/08/24 10:00:58;;;;;;;1.95;1.20;;;23.60;57.80;;;;;;5072936;28;20052;-48
2021/08/24 10:03:28;;;;;;;2.88;1.60;;;23.60;57.80;;;;;;5072556;28;20077;-47
2021/08/24 10:06:15;;;;;;;2.00;1.30;;;23.60;57.80;;;;;;5072067;28;20081;-48
2021/08/24 10:08:42;;;;;;;3.97;1.70;;;23.60;57.80;;;;;;5073133;28;20024;-47
2021/08/24 10:11:21;;;;;;;2.88;1.30;;;23.60;57.70;;;;;;5053289;28;20060;-51
2021/08/24 10:13:47;;;;;;;2.10;1.13;;;23.60;57.80;;;;;;5072874;28;20381;-47
2021/08/24 10:16:29;;;;;;;2.67;1.50;;;23.60;57.80;;;;;;5072027;28;20033;-47
2021/08/24 10:19:10;;;;;;;2.38;1.17;;;23.70;57.80;;;;;;5073039;28;20032;-47
2021/08/24 10:21:54;;;;;;;2.25;1.30;;;23.60;57.70;;;;;;5072392;28;20071;-48
2021/08/24 10:24:51;;;;;;;2.38;1.40;;;23.60;57.70;;;;;;5072292;28;20177;-48
2021/08/24 10:27:30;;;;;;;2.88;1.60;;;23.70;57.80;;;;;;5071844;28;20025;-47
2021/08/24 10:30:01;;;;;;;2.40;1.40;;;23.70;57.80;;;;;;5072914;28;20048;-47
2021/08/24 10:32:32;;;;;;;1.50;1.30;;;23.70;57.80;;;;;;5072521;28;20116;-47
2021/08/24 10:35:00;;;;;;;2.10;1.45;;;23.70;57.80;;;;;;5072687;28;20028;-47
2021/08/24 10:37:26;;;;;;;2.65;1.58;;;23.70;57.80;;;;;;5072210;28;20522;-47
2021/08/24 10:40:07;;;;;;;2.92;1.35;;;23.70;57.80;;;;;;5072416;28;20041;-47
2021/08/24 10:42:34;;;;;;;1.70;1.52;;;23.70;57.80;;;;;;5060066;28;20487;-46
2021/08/24 10:45:25;;;;;;;2.13;1.33;;;23.70;57.80;;;;;;5052445;28;20033;-47
2021/08/24 10:47:56;;;;;;;1.90;1.40;;;23.70;57.80;;;;;;5052366;28;20025;-47
2021/08/24 10:50:43;;;;;;;1.88;1.20;;;23.70;57.80;;;;;;5051915;28;20040;-47
2021/08/24 10:53:35;;;;;;;1.95;1.40;;;23.70;57.80;;;;;;5051518;28;20520;-47
2021/08/24 10:56:10;;;;;;;1.35;1.08;;;23.70;57.90;;;;;;5052146;28;20078;-47
2021/08/24 10:58:43;;;;;;;2.25;1.48;;;23.70;57.90;;;;;;5052047;28;20029;-47
2021/08/24 11:01:24;;;;;;;2.03;1.38;;;23.70;57.90;;;;;;5051864;28;20045;-48
2021/08/24 11:04:29;;;;;;;1.90;1.33;;;23.70;57.80;;;;;;5052004;28;20454;-47
2021/08/24 11:07:09;;;;;;;2.08;1.55;;;23.70;57.80;;;;;;5052112;28;20120;-47
2021/08/24 11:09:43;;;;;;;1.77;1.20;;;23.70;57.90;;;;;;5052177;28;20454;-47
2021/08/24 11:12:27;;;;;;;1.52;1.10;;;23.70;57.90;;;;;;5060114;28;20494;-47
2021/08/24 11:15:24;;;;;;;2.13;1.65;;;23.70;57.90;;;;;;5072182;28;20082;-47
2021/08/24 11:18:05;;;;;;;1.98;1.17;;;23.70;57.80;;;;;;5075320;28;20412;-47
2021/08/24 11:21:22;;;;;;;2.00;1.80;;;23.70;57.80;;;;;;5076254;28;20383;-47
2021/08/24 11:23:56;;;;;;;1.67;1.20;;;23.70;57.90;;;;;;5063589;28;20036;-48
2021/08/24 11:26:39;;;;;;;2.67;1.50;;;23.70;57.90;;;;;;5075631;28;20025;-47
2021/08/24 11:29:23;;;;;;;2.00;1.50;;;23.70;57.90;;;;;;5075324;28;20063;-46
2021/08/24 11:32:15;;;;;;;2.80;1.30;;;23.70;57.90;;;;;;5076160;28;20028;-49
2021/08/24 11:34:43;;;;;;;;;;;23.70;57.90;;;;;;5076051;28;20523;-47
2021/08/24 11:37:18;;;;;;;3.13;1.35;;;23.70;57.90;;;;;;5075248;28;19911;-47
2021/08/24 11:40:01;;;;;;;1.92;1.10;;;23.70;57.80;;;;;;5075906;28;20078;-48
2021/08/24 11:42:35;;;;;;;1.83;1.30;;;23.70;57.80;;;;;;5074668;28;20116;-46
2021/08/24 11:45:06;;;;;;;1.35;1.20;;;23.70;57.80;;;;;;5075661;28;20029;-47
2021/08/24 11:47:38;;;;;;;;;;;23.70;57.80;;;;;;5075967;28;20028;-47
2021/08/24 11:50:18;;;;;;;1.30;1.15;;;23.70;57.90;;;;;;5074938;28;19904;-53
2021/08/24 11:52:50;;;;;;;2.17;1.50;;;23.70;57.90;;;;;;5075566;28;20377;-49
2021/08/24 11:55:32;;;;;;;2.38;1.20;;;23.70;57.80;;;;;;5074750;28;20445;-46
2021/08/24 11:57:58;;;;;;;;;;;23.70;57.90;;;;;;5075690;28;20028;-47
2021/08/24 12:00:24;;;;;;;1.92;1.20;;;23.70;57.90;;;;;;5074800;28;20339;-47
2021/08/24 12:02:51;;;;;;;1.83;1.30;;;23.70;57.90;;;;;;5075328;28;20067;-49
2021/08/24 12:05:24;;;;;;;1.85;1.40;;;23.70;57.90;;;;;;5074796;28;20028;-48
2021/08/24 12:07:56;;;;;;;3.05;1.48;;;23.70;58.00;;;;;;5075133;28;20020;-48
2021/08/24 12:10:32;;;;;;;2.38;1.33;;;23.70;58.00;;;;;;5062196;28;20078;-48
2021/08/24 12:13:09;;;;;;;2.38;1.25;;;23.70;57.90;;;;;;5070119;28;20120;-47
2021/08/24 12:15:42;;;;;;;2.00;1.15;;;23.80;58.00;;;;;;5075551;28;20116;-47
2021/08/24 12:18:28;;;;;;;2.20;1.60;;;23.70;58.00;;;;;;5074086;28;20482;-47
2021/08/24 12:20:58;;;;;;;2.08;1.40;;;23.80;58.10;;;;;;5074469;28;20107;-48
2021/08/24 12:23:38;;;;;;;2.22;1.30;;;23.80;58.10;;;;;;5074119;28;20474;-48
2021/08/24 12:26:30;;;;;;;1.77;1.38;;;23.80;58.10;;;;;;5075041;28;20028;-46
2021/08/24 12:29:03;;;;;;;2.38;1.30;;;23.70;58.10;;;;;;5074081;28;20051;-47
2021/08/24 12:31:48;;;;;;;2.60;1.83;;;23.80;58.10;;;;;;5074407;28;20073;-48
2021/08/24 12:34:35;;;;;;;2.47;1.58;;;23.80;58.10;;;;;;5074084;28;20090;-46
2021/08/24 12:37:19;;;;;;;2.05;1.50;;;23.80;58.20;;;;;;5074892;28;20056;-47
2021/08/24 12:39:52;;;;;;;1.80;1.38;;;23.80;58.20;;;;;;5074853;28;20052;-47
2021/08/24 12:42:23;;;;;;;2.20;1.50;;;23.80;58.20;;;;;;5073440;28;20047;-48
2021/08/24 12:45:15;;;;;;;2.28;1.33;;;23.80;58.20;;;;;;5074520;28;20036;-47
2021/08/24 12:47:42;;;;;;;;;;;23.70;58.20;;;;;;5075232;28;20039;-47
2021/08/24 12:50:08;;;;;;;1.58;1.23;;;23.70;58.20;;;;;;5073635;28;19911;-47
2021/08/24 12:52:42;;;;;;;2.05;1.40;;;23.80;58.20;;;;;;5074529;28;20024;-47
2021/08/24 12:55:34;;;;;;;1.80;1.38;;;23.80;58.30;;;;;;5073927;28;20021;-47
2021/08/24 12:58:24;;;;;;;1.85;1.27;;;23.80;58.20;;;;;;5074323;28;20481;-48
2021/08/24 13:01:14;;;;;;;1.98;1.38;;;23.70;58.20;;;;;;5074342;28;20082;-48
2021/08/24 13:03:58;;;;;;;1.58;1.42;;;23.80;58.20;;;;;;5074209;28;20033;-48
2021/08/24 13:06:31;;;;;;;2.60;1.42;;;23.70;58.20;;;;;;5073748;28;20050;-49
2021/08/24 13:09:18;;;;;;;1.92;1.30;;;23.70;58.10;;;;;;5073629;28;20090;-47
2021/08/24 13:12:04;;;;;;;2.53;1.50;;;23.70;58.10;;;;;;5059032;28;20024;-47
2021/08/24 13:14:52;;;;;;;1.58;1.33;;;23.80;58.20;;;;;;5073725;28;20064;-54